ADDS TAF Data INFO
IDs: Format: Raw Decoded Include METARs

Data at: 1310 UTC 21 May 2018

KCNY 211253Z AUTO 13009KT 10SM CLR 15/02 A2992 RMK AO2 SLP085 T01500022

KCNY 211120Z 2112/2212 12005KT P6SM FEW250
  FM211800 17008KT P6SM FEW130 SCT250
  FM212200 20009KT P6SM SCT150 BKN250
  FM220300 03006KT P6SM FEW120 SCT250
  FM220600 08005KT P6SM SCT100 BKN250